createdAt,value
2017-11-22T00:01:03.694Z,20.10
2017-11-22T00:03:32.351Z,17.97
2017-11-22T00:06:00.712Z,15.20
2017-11-22T00:08:29.305Z,16.43
2017-11-22T00:10:56.799Z,22.03
2017-11-22T00:13:24.338Z,16.60
2017-11-22T00:15:53.260Z,12.77
2017-11-22T00:18:20.806Z,16.53
2017-11-22T00:20:48.348Z,14.97
2017-11-22T00:23:15.919Z,13.67
2017-11-22T00:25:43.422Z,17.93
2017-11-22T00:28:10.982Z,15.27
2017-11-22T00:30:38.536Z,17.43
2017-11-22T00:33:06.038Z,13.03
2017-11-22T00:35:33.571Z,14.20
2017-11-22T00:38:01.964Z,15.97
2017-11-22T00:40:30.339Z,20.10
2017-11-22T00:42:57.857Z,11.20
2017-11-22T00:45:25.398Z,13.80
2017-11-22T00:47:52.925Z,10.80
2017-11-22T00:50:27.154Z,14.43
2017-11-22T00:52:54.682Z,17.33
2017-11-22T00:55:23.180Z,14.47
2017-11-22T00:57:50.735Z,15.17
2017-11-22T01:00:19.350Z,12.87
2017-11-22T01:02:46.876Z,12.70
2017-11-22T01:05:14.469Z,10.47
2017-11-22T01:07:41.974Z,13.60
2017-11-22T01:10:10.269Z,15.13
2017-11-22T01:12:41.422Z,12.40
2017-11-22T01:15:08.952Z,12.40
2017-11-22T01:17:36.520Z,15.63
2017-11-22T01:20:04.835Z,12.73
2017-11-22T01:22:32.353Z,15.20
2017-11-22T01:24:59.918Z,12.70
2017-11-22T01:27:34.962Z,12.07
2017-11-22T01:30:08.589Z,13.47
2017-11-22T01:32:43.057Z,15.33
2017-11-22T01:35:25.312Z,14.13
2017-11-22T01:37:52.881Z,16.67
2017-11-22T01:43:15.432Z,14.40
2017-11-22T01:45:43.601Z,16.40
2017-11-22T01:48:12.261Z,15.07
2017-11-22T01:50:46.323Z,18.50
2017-11-22T01:53:21.431Z,15.90
2017-11-22T01:55:55.130Z,13.90
2017-11-22T01:58:29.766Z,13.17
2017-11-22T02:00:57.748Z,18.30
2017-11-22T02:03:26.336Z,14.30
2017-11-22T02:05:54.861Z,15.60
2017-11-22T02:08:25.601Z,15.17
2017-11-22T02:10:53.137Z,14.63
2017-11-22T02:13:21.784Z,13.90
2017-11-22T02:15:52.374Z,16.30
2017-11-22T02:18:21.030Z,11.63
2017-11-22T02:20:48.532Z,13.47
2017-11-22T02:23:24.725Z,17.47
2017-11-22T02:25:52.244Z,14.67
2017-11-22T02:28:31.296Z,14.03
2017-11-22T02:30:59.619Z,12.13
2017-11-22T02:33:50.586Z,18.60
2017-11-22T02:36:18.171Z,18.90
2017-11-22T02:38:46.776Z,12.20
2017-11-22T02:41:15.526Z,14.97
2017-11-22T02:43:48.671Z,15.43
2017-11-22T02:46:22.029Z,13.97
2017-11-22T02:48:53.715Z,13.90
2017-11-22T02:51:22.385Z,15.00
2017-11-22T02:53:50.741Z,11.80
2017-11-22T02:56:21.776Z,15.53
2017-11-22T02:58:49.317Z,20.10
2017-11-22T03:01:17.615Z,15.73
2017-11-22T03:06:21.096Z,15.73
2017-11-22T03:08:48.658Z,13.90
2017-11-22T03:11:22.051Z,18.97
2017-11-22T03:13:50.380Z,16.43
2017-11-22T03:16:18.543Z,15.73
2017-11-22T03:18:46.067Z,10.63
2017-11-22T03:21:14.901Z,14.60
2017-11-22T03:23:50.565Z,15.00
2017-11-22T03:26:18.929Z,15.20
2017-11-22T03:28:52.931Z,17.20
2017-11-22T03:31:30.606Z,18.13
2017-11-22T03:34:04.388Z,19.77
2017-11-22T03:36:32.744Z,14.87
2017-11-22T03:39:00.405Z,15.17
2017-11-22T03:41:27.925Z,13.37
2017-11-22T03:43:55.479Z,15.50
2017-11-22T03:46:23.015Z,13.60
2017-11-22T03:48:56.285Z,13.77
2017-11-22T03:51:36.596Z,16.40
2017-11-22T03:54:04.797Z,13.27
2017-11-22T03:56:32.307Z,14.47
2017-11-22T03:59:18.315Z,17.20
2017-11-22T04:01:47.156Z,17.80
2017-11-22T04:04:42.562Z,12.33
2017-11-22T04:07:30.578Z,18.83
2017-11-22T04:10:01.215Z,16.77
2017-11-22T04:12:35.223Z,17.70
2017-11-22T04:15:06.105Z,14.90
2017-11-22T04:17:34.415Z,19.77
2017-11-22T04:20:08.235Z,18.33
2017-11-22T04:22:36.762Z,19.73
2017-11-22T04:25:16.014Z,18.03
2017-11-22T04:27:44.511Z,18.97
2017-11-22T04:30:20.005Z,18.50
2017-11-22T04:33:09.992Z,16.90
2017-11-22T04:35:45.419Z,20.27
2017-11-22T04:38:19.762Z,18.70
2017-11-22T04:40:58.168Z,18.03
2017-11-22T04:43:25.698Z,18.37
2017-11-22T04:45:54.032Z,17.10
2017-11-22T04:48:24.537Z,20.43
2017-11-22T04:50:52.047Z,18.93
2017-11-22T04:53:19.552Z,17.87
2017-11-22T04:55:48.742Z,18.33
2017-11-22T04:58:16.305Z,16.60
2017-11-22T05:00:50.268Z,17.53
2017-11-22T05:03:21.199Z,19.70
2017-11-22T05:05:48.730Z,18.50
2017-11-22T05:08:16.275Z,16.70
2017-11-22T05:10:43.799Z,18.87
2017-11-22T05:13:12.092Z,24.17
2017-11-22T05:15:48.199Z,18.90
2017-11-22T05:18:15.926Z,20.43
2017-11-22T05:20:44.702Z,22.10
2017-11-22T05:23:13.428Z,18.60
2017-11-22T05:25:43.985Z,20.63
2017-11-22T05:28:14.601Z,21.23
2017-11-22T05:30:44.625Z,22.27
2017-11-22T05:33:14.170Z,27.10
2017-11-22T05:35:41.717Z,21.83
2017-11-22T05:38:21.344Z,24.10
2017-11-22T05:43:21.741Z,38.10
2017-11-22T05:45:49.303Z,24.10
2017-11-22T05:48:16.864Z,22.10
2017-11-22T05:51:03.587Z,30.53
2017-11-22T05:53:38.537Z,24.90
2017-11-22T05:56:06.828Z,30.50
2017-11-22T05:58:35.314Z,20.83
2017-11-22T06:01:07.301Z,21.23
2017-11-22T06:03:34.904Z,24.50
2017-11-22T06:06:10.407Z,23.30
2017-11-22T06:08:37.896Z,24.70
2017-11-22T06:11:05.402Z,24.50
2017-11-22T06:13:39.218Z,23.60
2017-11-22T06:16:07.971Z,22.97
2017-11-22T06:18:37.582Z,23.80
2017-11-22T06:21:05.118Z,25.77
2017-11-22T06:23:34.137Z,25.90
2017-11-22T06:28:54.299Z,24.37
2017-11-22T06:31:21.847Z,23.23
2017-11-22T06:33:55.354Z,27.50
2017-11-22T06:36:26.846Z,26.60
2017-11-22T06:38:56.287Z,26.13
2017-11-22T06:41:25.427Z,28.97
2017-11-22T06:43:54.199Z,22.23
2017-11-22T06:46:27.776Z,22.37
2017-11-22T06:48:55.831Z,27.67
2017-11-22T06:54:16.548Z,22.73
2017-11-22T06:56:51.865Z,24.23
2017-11-22T06:59:22.827Z,21.50
2017-11-22T07:01:58.833Z,26.83
2017-11-22T07:04:29.861Z,23.10
2017-11-22T07:07:01.547Z,20.30
2017-11-22T07:09:29.117Z,26.13
2017-11-22T07:11:56.671Z,26.47
2017-11-22T07:14:25.457Z,26.50
2017-11-22T07:16:58.633Z,21.03
2017-11-22T07:19:26.116Z,22.97
2017-11-22T07:21:53.619Z,22.37
2017-11-22T07:24:21.918Z,22.83
2017-11-22T07:26:49.954Z,25.60
2017-11-22T07:29:17.533Z,25.87
2017-11-22T07:31:45.112Z,26.63
2017-11-22T07:34:12.643Z,22.57
2017-11-22T07:39:51.528Z,22.43
2017-11-22T07:42:19.058Z,22.00
2017-11-22T07:44:46.545Z,20.47
2017-11-22T07:47:19.015Z,24.60
2017-11-22T07:49:46.545Z,21.43
2017-11-22T07:52:14.982Z,23.30
2017-11-22T07:54:44.116Z,21.83
2017-11-22T07:57:11.617Z,21.90
2017-11-22T07:59:39.105Z,24.80
2017-11-22T08:02:06.628Z,23.13
2017-11-22T08:04:34.127Z,23.07
2017-11-22T08:07:01.629Z,23.53
2017-11-22T08:09:29.907Z,21.63
2017-11-22T08:11:57.419Z,25.23
2017-11-22T08:14:25.649Z,21.53
2017-11-22T08:16:53.169Z,22.20
2017-11-22T08:19:20.657Z,22.63
2017-11-22T08:21:48.140Z,23.87
2017-11-22T08:24:15.678Z,24.03
2017-11-22T08:26:43.176Z,26.63
2017-11-22T08:29:10.660Z,26.33
2017-11-22T08:31:38.242Z,24.30
2017-11-22T08:34:05.741Z,22.43
2017-11-22T08:36:33.995Z,24.37
2017-11-22T08:39:01.505Z,22.73
2017-11-22T08:41:36.356Z,22.03
2017-11-22T08:44:06.477Z,19.37
2017-11-22T08:46:34.740Z,19.80
2017-11-22T08:49:02.228Z,19.10
2017-11-22T08:51:30.516Z,22.33
2017-11-22T08:57:05.557Z,19.20
2017-11-22T08:59:33.053Z,18.87
2017-11-22T09:02:00.535Z,21.03
2017-11-22T09:04:28.037Z,21.40
2017-11-22T09:06:55.529Z,18.30
2017-11-22T09:09:23.448Z,23.60
2017-11-22T09:11:53.842Z,20.37
2017-11-22T09:14:21.333Z,19.63
2017-11-22T09:16:48.898Z,17.33
2017-11-22T09:19:16.462Z,16.60
2017-11-22T09:21:44.738Z,19.40
2017-11-22T09:24:18.611Z,18.20
2017-11-22T09:26:52.311Z,17.97
2017-11-22T09:29:20.800Z,18.67
2017-11-22T09:34:43.268Z,16.60
2017-11-22T09:37:15.344Z,18.73
2017-11-22T09:39:43.867Z,14.97
2017-11-22T09:42:11.393Z,17.80
2017-11-22T09:44:40.675Z,16.63
2017-11-22T09:47:10.057Z,12.13
2017-11-22T09:49:37.575Z,13.30
2017-11-22T09:52:05.088Z,13.40
2017-11-22T09:54:32.841Z,16.13
2017-11-22T09:57:03.030Z,13.20
2017-11-22T09:59:30.530Z,22.80
2017-11-22T10:01:58.827Z,14.53
2017-11-22T10:04:26.368Z,14.00
2017-11-22T10:06:53.979Z,15.13
2017-11-22T10:09:21.578Z,16.37
2017-11-22T10:11:49.104Z,13.83
2017-11-22T10:14:16.773Z,22.33
2017-11-22T10:16:47.181Z,14.37
2017-11-22T10:19:14.717Z,13.17
2017-11-22T10:21:42.268Z,11.17
2017-11-22T10:24:10.656Z,15.30
2017-11-22T10:26:49.981Z,12.10
2017-11-22T10:29:31.986Z,11.90
2017-11-22T10:32:03.097Z,10.90
2017-11-22T10:34:31.339Z,9.27
2017-11-22T10:36:58.897Z,10.70
2017-11-22T10:39:26.869Z,11.80
2017-11-22T10:41:55.664Z,10.13
2017-11-22T10:44:23.949Z,10.43
2017-11-22T10:46:52.273Z,11.20
2017-11-22T10:49:19.844Z,11.50
2017-11-22T10:51:47.406Z,7.83
2017-11-22T10:54:14.929Z,11.57
2017-11-22T10:56:42.630Z,9.30
2017-11-22T10:59:15.620Z,11.67
2017-11-22T11:01:43.953Z,9.83
2017-11-22T11:04:11.490Z,10.37
2017-11-22T11:06:39.763Z,9.90
2017-11-22T11:09:08.331Z,13.23
2017-11-22T11:11:37.207Z,8.87
2017-11-22T11:14:06.492Z,8.40
2017-11-22T11:16:34.963Z,7.80
2017-11-22T11:19:03.285Z,8.93
2017-11-22T11:21:31.572Z,12.37
2017-11-22T11:23:59.883Z,9.60
2017-11-22T11:26:33.282Z,10.17
2017-11-22T11:29:03.601Z,10.20
2017-11-22T11:31:34.506Z,10.47
2017-11-22T11:34:02.221Z,7.00
2017-11-22T11:36:33.193Z,12.00
2017-11-22T11:39:05.257Z,13.50
2017-11-22T11:41:39.431Z,7.90
2017-11-22T11:44:09.663Z,7.57
2017-11-22T11:46:44.977Z,11.13
2017-11-22T11:49:14.958Z,10.40
2017-11-22T11:51:42.457Z,11.00
2017-11-22T11:54:09.987Z,9.60
2017-11-22T11:56:37.513Z,8.67
2017-11-22T11:59:06.826Z,10.70
2017-11-22T12:01:39.714Z,10.67
2017-11-22T12:04:07.238Z,11.00
2017-11-22T12:06:38.843Z,6.90
2017-11-22T12:09:09.274Z,8.03
2017-11-22T12:11:38.731Z,8.33
2017-11-22T12:14:10.829Z,9.50
2017-11-22T12:16:39.147Z,8.73
2017-11-22T12:19:07.729Z,12.50
2017-11-22T12:21:39.946Z,7.17
2017-11-22T12:24:07.920Z,11.77
2017-11-22T12:26:35.439Z,11.13
2017-11-22T12:29:03.539Z,8.20
2017-11-22T12:31:32.139Z,7.40
2017-11-22T12:33:59.653Z,9.00
2017-11-22T12:36:28.042Z,8.47
2017-11-22T12:39:05.446Z,7.00
2017-11-22T12:41:33.040Z,9.27
2017-11-22T12:44:00.557Z,7.20
2017-11-22T12:46:29.741Z,11.00
2017-11-22T12:48:59.152Z,9.00
2017-11-22T12:51:26.664Z,9.17
2017-11-22T12:53:57.650Z,9.23
2017-11-22T12:56:25.226Z,11.23
2017-11-22T12:58:52.742Z,8.43
2017-11-22T13:01:21.075Z,8.10
2017-11-22T13:03:48.974Z,8.37
2017-11-22T13:06:24.209Z,11.50
2017-11-22T13:09:09.437Z,7.80
2017-11-22T13:11:50.107Z,10.90
2017-11-22T13:14:18.202Z,7.13
2017-11-22T13:16:49.604Z,8.63
2017-11-22T13:19:17.133Z,11.83
2017-11-22T13:21:51.426Z,8.07
2017-11-22T13:24:23.215Z,6.63
2017-11-22T13:26:52.957Z,8.70
2017-11-22T13:29:26.300Z,12.60
2017-11-22T13:31:55.113Z,5.93
2017-11-22T13:34:25.709Z,6.27
2017-11-22T13:36:53.495Z,10.10
2017-11-22T13:39:21.064Z,11.17
2017-11-22T13:41:48.657Z,7.10
2017-11-22T13:44:24.530Z,15.33
2017-11-22T13:46:55.745Z,7.67
2017-11-22T13:49:32.319Z,8.20
2017-11-22T13:52:20.151Z,8.23
2017-11-22T13:54:53.670Z,9.27
2017-11-22T14:00:34.821Z,7.30
2017-11-22T14:03:02.374Z,7.90
2017-11-22T14:27:06.462Z,6.97
2017-11-22T14:41:12.051Z,8.13
2017-11-22T14:43:56.000Z,7.00
2017-11-22T14:46:23.568Z,9.67
2017-11-22T14:48:51.133Z,11.83
2017-11-22T14:51:34.062Z,11.90
2017-11-22T14:54:10.904Z,13.10
2017-11-22T14:56:42.047Z,11.37
2017-11-22T14:59:09.627Z,9.10
2017-11-22T15:01:44.360Z,7.37
2017-11-22T15:04:11.853Z,9.90
2017-11-22T15:06:56.054Z,8.90
2017-11-22T15:09:38.279Z,9.00
2017-11-22T15:12:12.975Z,7.53
2017-11-22T15:14:42.614Z,7.20
2017-11-22T15:17:11.118Z,11.80
2017-11-22T15:19:58.669Z,7.20
2017-11-22T15:22:26.196Z,7.73
2017-11-22T15:24:58.780Z,8.40
2017-11-22T15:27:27.076Z,8.53
2017-11-22T15:30:04.190Z,8.17
2017-11-22T15:32:37.792Z,4.83
2017-11-22T15:35:05.606Z,9.80
2017-11-22T15:37:34.217Z,13.50
2017-11-22T15:43:28.663Z,5.90
2017-11-22T15:46:01.812Z,12.70
2017-11-22T15:48:29.315Z,6.60
2017-11-22T15:51:12.057Z,6.73
2017-11-22T15:53:41.251Z,8.90
2017-11-22T15:56:22.256Z,7.10
2017-11-22T15:58:58.235Z,8.00
2017-11-22T16:01:25.809Z,5.37
2017-11-22T16:03:53.308Z,11.57
2017-11-22T16:06:21.466Z,5.50
2017-11-22T16:09:00.287Z,6.00
2017-11-22T16:11:35.431Z,7.43
2017-11-22T16:14:09.230Z,6.80
2017-11-22T16:17:01.093Z,5.30
2017-11-22T16:19:45.480Z,7.93
2017-11-22T16:22:18.742Z,10.00
2017-11-22T16:24:46.245Z,5.30
2017-11-22T16:27:17.260Z,5.10
2017-11-22T16:29:51.503Z,7.97
2017-11-22T16:32:22.764Z,6.90
2017-11-22T16:34:51.190Z,9.80
2017-11-22T16:37:29.297Z,6.60
2017-11-22T16:40:03.908Z,6.20
2017-11-22T16:42:34.850Z,4.90
2017-11-22T16:45:03.939Z,5.90
2017-11-22T16:47:37.682Z,6.60
2017-11-22T16:50:11.221Z,9.10
2017-11-22T16:52:38.787Z,4.70
2017-11-22T16:55:06.304Z,6.30
2017-11-22T16:57:39.068Z,4.37
2017-11-22T17:00:06.556Z,5.20
2017-11-22T17:02:34.066Z,3.93
2017-11-22T17:05:01.657Z,8.13
2017-11-22T17:07:29.936Z,9.33
2017-11-22T17:09:57.450Z,6.30
2017-11-22T17:12:25.122Z,4.00
2017-11-22T17:14:53.195Z,5.60
2017-11-22T17:17:20.692Z,5.37
2017-11-22T17:19:48.196Z,8.80
2017-11-22T17:22:16.987Z,5.43
2017-11-22T17:24:44.472Z,6.13
2017-11-22T17:27:12.756Z,7.07
2017-11-22T17:29:41.020Z,8.33
2017-11-22T17:32:10.269Z,4.37
2017-11-22T17:34:37.803Z,5.03
2017-11-22T17:37:05.312Z,4.63
2017-11-22T17:39:32.813Z,10.57
2017-11-22T17:42:00.337Z,5.97
2017-11-22T17:44:28.590Z,8.57
2017-11-22T17:46:56.321Z,7.20
2017-11-22T17:49:23.853Z,5.87
2017-11-22T17:51:51.349Z,9.27
2017-11-22T17:54:18.828Z,7.30
2017-11-22T17:56:46.429Z,9.70
2017-11-22T17:59:13.956Z,7.27
2017-11-22T18:01:41.444Z,5.87
2017-11-22T18:04:09.048Z,6.27
2017-11-22T18:06:36.544Z,6.60
2017-11-22T18:09:04.813Z,7.27
2017-11-22T18:11:34.195Z,10.00
2017-11-22T18:14:01.698Z,5.03
2017-11-22T18:16:29.971Z,7.90
2017-11-22T18:18:57.481Z,6.10
2017-11-22T18:21:24.966Z,8.07
2017-11-22T18:23:53.208Z,5.73
2017-11-22T18:26:25.641Z,4.37
2017-11-22T18:28:53.163Z,7.10
2017-11-22T18:31:21.444Z,7.80
2017-11-22T18:33:50.524Z,7.90
2017-11-22T18:36:18.821Z,6.87
2017-11-22T18:38:46.313Z,7.03
2017-11-22T18:41:13.900Z,7.40
2017-11-22T18:43:41.411Z,9.33
2017-11-22T18:46:08.957Z,11.27
2017-11-22T18:48:36.533Z,6.00
2017-11-22T18:51:04.061Z,6.27
2017-11-22T18:53:32.190Z,6.90
2017-11-22T18:56:15.803Z,6.43
2017-11-22T18:58:43.311Z,5.73
2017-11-22T19:01:11.582Z,7.37
2017-11-22T19:03:45.768Z,6.57
2017-11-22T19:06:13.385Z,7.33
2017-11-22T19:08:40.889Z,6.57
2017-11-22T19:11:08.400Z,6.67
2017-11-22T19:13:39.709Z,8.17
2017-11-22T19:16:07.990Z,5.00
2017-11-22T19:18:36.306Z,7.53
2017-11-22T19:21:03.835Z,10.03
2017-11-22T19:23:32.118Z,8.00
2017-11-22T19:25:59.644Z,5.47
2017-11-22T19:28:27.161Z,8.10
2017-11-22T19:30:54.700Z,7.17
2017-11-22T19:33:22.207Z,13.37
2017-11-22T19:35:50.511Z,9.33
2017-11-22T19:38:18.844Z,8.93
2017-11-22T19:40:46.390Z,5.53
2017-11-22T19:43:16.842Z,6.77
2017-11-22T19:45:45.390Z,6.57
2017-11-22T19:48:16.040Z,4.40
2017-11-22T19:50:44.377Z,7.70
2017-11-22T19:53:12.156Z,8.03
2017-11-22T19:55:39.880Z,10.80
2017-11-22T19:58:09.008Z,6.50
2017-11-22T20:00:36.772Z,7.40
2017-11-22T20:03:04.248Z,7.23
2017-11-22T20:05:31.752Z,5.50
2017-11-22T20:08:11.857Z,5.67
2017-11-22T20:10:40.273Z,4.80
2017-11-22T20:13:08.638Z,3.73
2017-11-22T20:15:36.891Z,6.37
2017-11-22T20:18:04.385Z,5.93
2017-11-22T20:20:32.668Z,7.00
2017-11-22T20:23:00.945Z,8.33
2017-11-22T20:25:29.213Z,6.63
2017-11-22T20:27:57.464Z,7.27
2017-11-22T20:30:24.969Z,10.67
2017-11-22T20:32:53.378Z,5.20
2017-11-22T20:35:20.889Z,10.03
2017-11-22T20:37:48.429Z,9.13
2017-11-22T20:40:16.730Z,6.77
2017-11-22T20:42:44.270Z,5.63
2017-11-22T20:45:14.141Z,9.27
2017-11-22T20:50:42.935Z,5.33
2017-11-22T20:53:10.489Z,9.70
2017-11-22T20:55:38.743Z,6.53
2017-11-22T20:58:06.262Z,8.60
2017-11-22T21:00:34.509Z,4.10
2017-11-22T21:03:02.009Z,5.60
2017-11-22T21:05:30.281Z,9.30
2017-11-22T21:07:57.788Z,5.87
2017-11-22T21:10:25.285Z,7.73
2017-11-22T21:12:52.803Z,9.40
2017-11-22T21:15:20.283Z,7.03
2017-11-22T21:17:48.558Z,5.43
2017-11-22T21:20:16.033Z,9.87
2017-11-22T21:22:43.565Z,8.17
2017-11-22T21:25:11.073Z,10.80
2017-11-22T21:27:39.348Z,9.10
2017-11-22T21:30:06.856Z,5.83
2017-11-22T21:32:34.336Z,4.97
2017-11-22T21:35:01.841Z,6.70
2017-11-22T21:37:29.333Z,16.60
2017-11-22T21:39:56.846Z,4.87
2017-11-22T21:42:24.333Z,4.70
2017-11-22T21:44:51.840Z,6.67
2017-11-22T21:47:19.359Z,14.27
2017-11-22T21:49:47.617Z,5.37
2017-11-22T21:52:15.128Z,6.17
2017-11-22T21:54:42.640Z,6.17
2017-11-22T21:57:10.137Z,6.23
2017-11-22T21:59:38.390Z,4.53
2017-11-22T22:02:05.905Z,4.93
2017-11-22T22:04:34.145Z,4.30
2017-11-22T22:07:01.629Z,4.10
2017-11-22T22:09:29.136Z,6.07
2017-11-22T22:11:57.385Z,7.63
2017-11-22T22:14:24.898Z,8.23
2017-11-22T22:16:53.153Z,4.37
2017-11-22T22:19:20.669Z,6.23
2017-11-22T22:21:48.152Z,3.03
2017-11-22T22:24:15.668Z,6.07
2017-11-22T22:26:43.147Z,5.07
2017-11-22T22:29:10.620Z,7.70
2017-11-22T22:31:38.124Z,4.73
2017-11-22T22:34:05.609Z,4.70
2017-11-22T22:36:33.112Z,5.23
2017-11-22T22:39:00.600Z,4.07
2017-11-22T22:41:28.106Z,3.33
2017-11-22T22:43:55.589Z,4.63
2017-11-22T22:46:23.092Z,4.20
2017-11-22T22:48:50.598Z,5.37
2017-11-22T22:51:18.838Z,3.80
2017-11-22T22:53:46.361Z,4.80
2017-11-22T22:56:14.604Z,6.13
2017-11-22T22:58:42.085Z,3.80
2017-11-22T23:01:09.589Z,5.63
2017-11-22T23:03:37.858Z,4.47
2017-11-22T23:06:05.341Z,10.93
2017-11-22T23:08:33.616Z,6.10
2017-11-22T23:11:01.099Z,6.10
2017-11-22T23:13:29.368Z,4.50
2017-11-22T23:15:56.848Z,5.00
2017-11-22T23:18:24.333Z,13.13
2017-11-22T23:20:52.617Z,4.90
2017-11-22T23:23:20.876Z,5.33
2017-11-22T23:25:48.372Z,5.53
2017-11-22T23:28:16.629Z,14.53
2017-11-22T23:30:44.145Z,5.13
2017-11-22T23:33:12.389Z,8.20
2017-11-22T23:35:39.874Z,6.00
2017-11-22T23:38:07.381Z,5.30
2017-11-22T23:40:34.902Z,6.03
2017-11-22T23:43:02.396Z,5.50
2017-11-22T23:45:29.909Z,9.47
2017-11-22T23:47:57.421Z,7.73
2017-11-22T23:50:24.973Z,7.40
2017-11-22T23:52:52.490Z,6.20
2017-11-22T23:55:20.748Z,6.60
2017-11-22T23:57:48.228Z,3.73
